createdAt,value
2023-02-05T00:01:10.303Z,100718.86
2023-02-05T00:03:43.001Z,100721.98
2023-02-05T00:06:11.501Z,100716.44
2023-02-05T00:08:39.826Z,100722.35
2023-02-05T00:11:09.856Z,100725.13
2023-02-05T00:13:42.094Z,100728.63
2023-02-05T00:16:13.454Z,100732.27
2023-02-05T00:18:41.891Z,100732.08
2023-02-05T00:21:11.301Z,100732.45
2023-02-05T00:23:40.050Z,100730.37
2023-02-05T00:26:10.788Z,100732.45
2023-02-05T00:28:39.466Z,100735.92
2023-02-05T00:31:11.885Z,100738.88
2023-02-05T00:33:40.402Z,100739.92
2023-02-05T00:36:10.028Z,100739.92
2023-02-05T00:38:40.755Z,100737.98
2023-02-05T00:41:10.466Z,100739.73
2023-02-05T00:43:40.063Z,100742.52
2023-02-05T00:46:10.595Z,100739.90
2023-02-05T00:48:39.530Z,100744.77
2023-02-05T00:51:10.614Z,100747.38
2023-02-05T00:53:39.551Z,100746.16
2023-02-05T00:56:08.508Z,100748.77
2023-02-05T00:58:37.410Z,100749.65
2023-02-05T01:01:05.997Z,100751.90
2023-02-05T01:03:34.469Z,100748.08
2023-02-05T01:06:03.516Z,100748.42
2023-02-05T01:08:32.459Z,100750.34
2023-02-05T01:11:01.689Z,100744.94
2023-02-05T01:13:30.115Z,100749.97
2023-02-05T01:15:58.475Z,100745.11
2023-02-05T01:18:28.014Z,100747.20
2023-02-05T01:20:56.430Z,100745.28
2023-02-05T01:23:24.845Z,100745.80
2023-02-05T01:25:53.164Z,100744.58
2023-02-05T01:28:21.721Z,100746.50
2023-02-05T01:30:51.854Z,100741.98
2023-02-05T01:33:20.281Z,100743.36
2023-02-05T01:35:48.657Z,100741.27
2023-02-05T01:38:17.090Z,100739.36
2023-02-05T01:40:45.378Z,100740.06
2023-02-05T01:43:16.215Z,100744.59
2023-02-05T01:45:53.607Z,100747.55
2023-02-05T01:48:29.906Z,100749.28
2023-02-05T01:51:04.503Z,100753.79
2023-02-05T01:53:37.020Z,100753.95
2023-02-05T01:56:10.376Z,100756.57
2023-02-05T01:58:49.880Z,100751.70
2023-02-05T02:01:18.751Z,100753.96
2023-02-05T02:03:49.214Z,100752.40
2023-02-05T02:06:17.732Z,100753.42
2023-02-05T02:08:46.149Z,100754.64
2023-02-05T02:11:19.017Z,100753.08
2023-02-05T02:13:50.978Z,100749.60
2023-02-05T02:16:21.390Z,100750.47
2023-02-05T02:18:51.000Z,100753.77
2023-02-05T02:21:38.281Z,100751.17
2023-02-05T02:24:45.583Z,100754.13
2023-02-05T02:27:17.254Z,100759.35
2023-02-05T02:30:03.110Z,100763.88
2023-02-05T02:32:46.849Z,100768.39
2023-02-05T02:35:48.319Z,100772.56
2023-02-05T02:38:52.845Z,100774.65
2023-02-05T02:41:59.891Z,100775.86
2023-02-05T02:44:38.449Z,100777.27
2023-02-05T02:47:18.509Z,100780.90
2023-02-05T02:49:56.511Z,100777.94
2023-02-05T02:52:27.292Z,100783.67
2023-02-05T02:55:00.892Z,100784.54
2023-02-05T02:57:30.171Z,100789.41
2023-02-05T03:00:01.443Z,100789.58
2023-02-05T03:02:35.752Z,100788.02
2023-02-05T03:05:13.060Z,100790.61
2023-02-05T03:07:56.620Z,100796.70
2023-02-05T03:10:34.938Z,100796.34
2023-02-05T03:13:03.845Z,100796.34
2023-02-05T03:15:32.531Z,100795.98
2023-02-05T03:18:01.353Z,100798.06
2023-02-05T03:20:33.525Z,100797.88
2023-02-05T03:23:01.807Z,100796.30
2023-02-05T03:25:30.676Z,100799.41
2023-02-05T03:28:00.434Z,100802.71
2023-02-05T03:30:46.851Z,100807.41
2023-02-05T03:33:27.491Z,100810.02
2023-02-05T03:36:26.012Z,100812.42
2023-02-05T03:39:26.567Z,100809.13
2023-02-05T03:42:03.708Z,100807.02
2023-02-05T03:44:57.024Z,100815.69
2023-02-05T03:47:28.644Z,100809.95
2023-02-05T03:50:05.432Z,100810.63
2023-02-05T03:52:38.447Z,100809.39
2023-02-05T03:55:13.445Z,100808.16
2023-02-05T03:57:50.155Z,100807.25
2023-02-05T04:00:20.896Z,100806.20
2023-02-05T04:02:49.380Z,100802.35
2023-02-05T04:05:23.265Z,100804.59
2023-02-05T04:07:53.814Z,100803.16
2023-02-05T04:10:24.276Z,100804.74
2023-02-05T04:12:52.866Z,100806.29
2023-02-05T04:15:21.291Z,100802.48
2023-02-05T04:17:52.934Z,100799.70
2023-02-05T04:20:22.161Z,100800.73
2023-02-05T04:22:50.448Z,100800.36
2023-02-05T04:25:20.801Z,100801.54
2023-02-05T04:27:49.762Z,100802.18
2023-02-05T04:30:24.529Z,100804.05
2023-02-05T04:32:53.101Z,100804.88
2023-02-05T04:35:21.439Z,100803.95
2023-02-05T04:37:49.901Z,100809.11
2023-02-05T04:40:18.632Z,100808.20
2023-02-05T04:42:46.924Z,100808.87
2023-02-05T04:45:15.381Z,100810.41
2023-02-05T04:47:43.774Z,100812.10
2023-02-05T04:50:12.128Z,100815.02
2023-02-05T04:52:40.426Z,100820.70
2023-02-05T04:55:08.853Z,100823.23
2023-02-05T04:57:37.413Z,100826.47
2023-02-05T05:00:06.694Z,100823.80
2023-02-05T05:02:35.621Z,100822.69
2023-02-05T05:05:04.428Z,100826.91
2023-02-05T05:07:33.075Z,100833.95
2023-02-05T05:10:01.364Z,100835.59
2023-02-05T05:12:29.698Z,100840.02
2023-02-05T05:14:58.076Z,100842.04
2023-02-05T05:17:26.520Z,100845.96
2023-02-05T05:19:55.073Z,100847.85
2023-02-05T05:22:23.325Z,100853.50
2023-02-05T05:24:51.700Z,100859.84
2023-02-05T05:27:20.105Z,100864.98
2023-02-05T05:29:48.425Z,100868.73
2023-02-05T05:32:16.836Z,100873.18
2023-02-05T05:34:45.197Z,100877.30
2023-02-05T05:37:13.423Z,100874.98
2023-02-05T05:40:00.747Z,100876.81
2023-02-05T05:42:48.115Z,100883.84
2023-02-05T05:45:16.599Z,100889.65
2023-02-05T05:47:44.840Z,100890.08
2023-02-05T05:50:13.183Z,100896.92
2023-02-05T05:52:41.528Z,100902.08
2023-02-05T05:55:09.803Z,100904.63
2023-02-05T05:57:38.179Z,100907.84
2023-02-05T06:00:07.092Z,100913.13
2023-02-05T06:02:44.002Z,100918.56
2023-02-05T06:05:12.536Z,100921.96
2023-02-05T06:07:40.791Z,100921.89
2023-02-05T06:10:09.395Z,100920.46
2023-02-05T06:12:37.800Z,100921.98
2023-02-05T06:15:06.780Z,100924.25
2023-02-05T06:17:35.431Z,100921.52
2023-02-05T06:20:06.118Z,100920.02
2023-02-05T06:22:35.628Z,100920.44
2023-02-05T06:25:04.740Z,100926.43
2023-02-05T06:27:33.295Z,100928.80
2023-02-05T06:30:01.737Z,100930.09
2023-02-05T06:32:30.291Z,100933.00
2023-02-05T06:34:58.590Z,100932.44
2023-02-05T06:37:46.108Z,100935.67
2023-02-05T06:40:18.371Z,100939.45
2023-02-05T06:42:49.211Z,100941.13
2023-02-05T06:45:17.743Z,100943.35
2023-02-05T06:47:46.300Z,100947.77
2023-02-05T06:50:15.208Z,100954.64
2023-02-05T06:52:48.149Z,100961.49
2023-02-05T06:55:18.859Z,100964.73
2023-02-05T06:57:50.988Z,100966.70
2023-02-05T07:00:19.645Z,100971.48
2023-02-05T07:02:48.081Z,100968.77
2023-02-05T07:05:16.521Z,100971.65
2023-02-05T07:07:44.830Z,100974.87
2023-02-05T07:10:13.242Z,100979.83
2023-02-05T07:12:41.605Z,100981.48
2023-02-05T07:15:10.238Z,100978.06
2023-02-05T07:17:39.693Z,100978.11
2023-02-05T07:20:11.684Z,100979.20
2023-02-05T07:22:40.315Z,100978.68
2023-02-05T07:25:09.074Z,100985.80
2023-02-05T07:27:37.544Z,100987.38
2023-02-05T07:30:06.789Z,100994.55
2023-02-05T07:32:35.484Z,100996.89
2023-02-05T07:35:04.636Z,100999.56
2023-02-05T07:37:33.293Z,101000.64
2023-02-05T07:40:05.771Z,101005.15
2023-02-05T07:42:34.348Z,101013.04
2023-02-05T07:45:03.256Z,101018.82
2023-02-05T07:47:31.594Z,101024.95
2023-02-05T07:49:59.991Z,101023.77
2023-02-05T07:52:28.525Z,101021.54
2023-02-05T07:54:56.903Z,101024.34
2023-02-05T07:57:26.762Z,101029.11
2023-02-05T07:59:55.251Z,101030.95
2023-02-05T08:02:24.074Z,101027.39
2023-02-05T08:04:52.902Z,101031.50
2023-02-05T08:07:21.270Z,101024.94
2023-02-05T08:09:49.751Z,101025.66
2023-02-05T08:12:18.146Z,101021.05
2023-02-05T08:14:46.544Z,101019.18
2023-02-05T08:17:14.897Z,101019.73
2023-02-05T08:19:43.494Z,101025.19
2023-02-05T08:22:11.807Z,101030.77
2023-02-05T08:24:40.680Z,101033.58
2023-02-05T08:27:09.060Z,101024.91
2023-02-05T08:29:37.444Z,101026.67
2023-02-05T08:32:05.901Z,101025.11
2023-02-05T08:34:34.714Z,101027.53
2023-02-05T08:37:03.098Z,101029.12
2023-02-05T08:39:31.450Z,101031.08
2023-02-05T08:41:59.841Z,101031.79
2023-02-05T08:44:28.838Z,101033.36
2023-02-05T08:46:57.167Z,101034.23
2023-02-05T08:49:26.436Z,101035.17
2023-02-05T08:51:55.127Z,101038.88
2023-02-05T08:54:23.490Z,101042.75
2023-02-05T08:56:52.315Z,101036.33
2023-02-05T08:59:21.680Z,101031.67
2023-02-05T09:01:50.232Z,101034.31
2023-02-05T09:04:21.516Z,101031.20
2023-02-05T09:06:52.978Z,101026.21
2023-02-05T09:09:21.463Z,101023.70
2023-02-05T09:11:49.984Z,101024.14
2023-02-05T09:14:18.467Z,101022.12
2023-02-05T09:16:46.970Z,101018.52
2023-02-05T09:19:21.425Z,101018.89
2023-02-05T09:21:49.793Z,101021.50
2023-02-05T09:24:18.206Z,101023.25
2023-02-05T09:26:46.519Z,101025.34
2023-02-05T09:29:14.950Z,101025.17
2023-02-05T09:31:43.421Z,101024.48
2023-02-05T09:34:11.979Z,101027.42
2023-02-05T09:36:40.698Z,101025.15
2023-02-05T09:39:18.479Z,101026.36
2023-02-05T09:42:17.342Z,101022.50
2023-02-05T09:44:57.837Z,101023.55
2023-02-05T09:48:03.051Z,101025.64
2023-02-05T09:50:34.014Z,101033.48
2023-02-05T09:53:10.919Z,101033.67
2023-02-05T09:55:45.676Z,101032.13
2023-02-05T09:58:31.307Z,101033.90
2023-02-05T10:01:06.948Z,101031.64
2023-02-05T10:03:47.544Z,101032.86
2023-02-05T10:06:27.963Z,101030.77
2023-02-05T10:09:20.633Z,101029.04
2023-02-05T10:11:59.781Z,101032.88
2023-02-05T10:15:01.711Z,101030.44
2023-02-05T10:17:54.879Z,101031.83
2023-02-05T10:20:35.174Z,101038.29
2023-02-05T10:23:27.953Z,101039.85
2023-02-05T10:26:18.375Z,101040.52
2023-02-05T10:29:11.728Z,101038.44
2023-02-05T10:31:45.183Z,101034.61
2023-02-05T10:34:36.884Z,101037.90
2023-02-05T10:37:12.452Z,101039.98
2023-02-05T10:39:41.484Z,101043.80
2023-02-05T10:42:33.234Z,101041.70
2023-02-05T10:45:18.994Z,101044.48
2023-02-05T10:47:50.657Z,101046.05
2023-02-05T10:50:21.681Z,101046.52
2023-02-05T10:52:50.327Z,101043.88
2023-02-05T10:55:19.957Z,101037.78
2023-02-05T10:57:48.709Z,101035.50
2023-02-05T11:00:22.290Z,101030.63
2023-02-05T11:02:55.939Z,101032.76
2023-02-05T11:05:41.905Z,101036.06
2023-02-05T11:08:34.183Z,101036.59
2023-02-05T11:11:07.520Z,101035.34
2023-02-05T11:13:52.464Z,101043.65
2023-02-05T11:16:24.301Z,101047.44
2023-02-05T11:19:01.595Z,101042.85
2023-02-05T11:22:05.663Z,101045.59
2023-02-05T11:24:42.571Z,101048.70
2023-02-05T11:27:32.322Z,101044.36
2023-02-05T11:30:50.060Z,101050.06
2023-02-05T11:33:23.369Z,101044.86
2023-02-05T11:35:56.489Z,101040.02
2023-02-05T11:38:32.594Z,101041.77
2023-02-05T11:41:05.855Z,101039.20
2023-02-05T11:43:51.003Z,101038.30
2023-02-05T11:49:35.587Z,101032.39
2023-02-05T11:52:14.279Z,101030.49
2023-02-05T11:54:49.245Z,101032.79
2023-02-05T11:57:17.610Z,101026.85
2023-02-05T11:59:56.550Z,101025.81
2023-02-05T12:02:30.970Z,101019.59
2023-02-05T12:05:21.185Z,101016.98
2023-02-05T12:07:55.627Z,101014.73
2023-02-05T12:10:39.493Z,101016.10
2023-02-05T12:13:35.425Z,101018.74
2023-02-05T12:16:46.330Z,101021.73
2023-02-05T12:19:38.367Z,101023.84
2023-02-05T12:22:31.092Z,101016.70
2023-02-05T12:25:35.740Z,101020.70
2023-02-05T12:28:33.751Z,101028.70
2023-02-05T12:31:32.323Z,101030.96
2023-02-05T12:34:39.183Z,101036.63
2023-02-05T12:37:19.464Z,101042.70
2023-02-05T12:40:01.746Z,101039.76
2023-02-05T12:43:02.653Z,101039.75
2023-02-05T12:45:49.977Z,101040.09
2023-02-05T12:48:58.846Z,101038.16
2023-02-05T12:51:43.937Z,101034.52
2023-02-05T12:54:52.093Z,101037.32
2023-02-05T12:57:26.889Z,101029.67
2023-02-05T13:00:11.134Z,101036.45
2023-02-05T13:03:11.966Z,101034.50
2023-02-05T13:05:48.832Z,101032.34
2023-02-05T13:08:38.423Z,101032.31
2023-02-05T13:11:38.215Z,101030.20
2023-02-05T13:14:09.514Z,101031.94
2023-02-05T13:16:46.041Z,101036.77
2023-02-05T13:20:06.995Z,101036.04
2023-02-05T13:23:06.293Z,101036.16
2023-02-05T13:26:00.778Z,101043.48
2023-02-05T13:28:47.709Z,101043.35
2023-02-05T13:31:26.220Z,101041.13
2023-02-05T13:34:09.753Z,101037.64
2023-02-05T13:37:28.369Z,101036.27
2023-02-05T13:39:56.822Z,101032.31
2023-02-05T13:42:44.015Z,101027.09
2023-02-05T13:45:43.535Z,101027.80
2023-02-05T13:48:27.489Z,101027.13
2023-02-05T13:51:14.781Z,101026.93
2023-02-05T13:53:55.824Z,101023.46
2023-02-05T13:57:15.625Z,101021.58
2023-02-05T13:59:55.705Z,101022.85
2023-02-05T14:02:34.669Z,101022.34
2023-02-05T14:05:04.891Z,101023.71
2023-02-05T14:07:59.194Z,101022.12
2023-02-05T14:10:29.310Z,101026.25
2023-02-05T14:13:31.135Z,101028.69
2023-02-05T14:16:25.269Z,101031.82
2023-02-05T14:18:59.565Z,101024.34
2023-02-05T14:21:33.620Z,101021.19
2023-02-05T14:24:27.535Z,101026.05
2023-02-05T14:27:00.669Z,101030.72
2023-02-05T14:29:42.953Z,101031.91
2023-02-05T14:32:35.880Z,101031.88
2023-02-05T14:38:56.903Z,101025.66
2023-02-05T14:41:55.193Z,101021.45
2023-02-05T14:44:34.417Z,101022.82
2023-02-05T14:47:18.151Z,101023.65
2023-02-05T14:49:53.248Z,101030.73
2023-02-05T14:52:58.306Z,101032.79
2023-02-05T14:55:34.206Z,101029.25
2023-02-05T14:58:35.690Z,101035.86
2023-02-05T15:01:33.498Z,101036.91
2023-02-05T15:04:06.506Z,101042.09
2023-02-05T15:06:46.452Z,101045.02
2023-02-05T15:09:34.296Z,101044.25
2023-02-05T15:12:09.196Z,101044.91
2023-02-05T15:14:52.376Z,101050.64
2023-02-05T15:17:33.575Z,101047.98
2023-02-05T15:20:19.254Z,101050.90
2023-02-05T15:23:12.251Z,101057.23
2023-02-05T15:26:05.579Z,101059.64
2023-02-05T15:28:42.615Z,101070.35
2023-02-05T15:31:34.822Z,101074.84
2023-02-05T15:34:31.619Z,101073.06
2023-02-05T15:37:17.875Z,101074.23
2023-02-05T15:39:58.825Z,101076.27
2023-02-05T15:42:36.667Z,101073.97
2023-02-05T15:45:28.869Z,101073.79
2023-02-05T15:48:05.830Z,101072.91
2023-02-05T15:50:37.840Z,101079.52
2023-02-05T15:53:38.617Z,101085.18
2023-02-05T15:56:16.285Z,101088.95
2023-02-05T15:58:58.389Z,101091.73
2023-02-05T16:01:32.549Z,101088.45
2023-02-05T16:04:01.777Z,101087.39
2023-02-05T16:06:31.090Z,101091.73
2023-02-05T16:08:59.451Z,101089.80
2023-02-05T16:11:37.881Z,101091.16
2023-02-05T16:14:32.061Z,101091.68
2023-02-05T16:17:07.758Z,101096.19
2023-02-05T16:19:45.837Z,101097.22
2023-02-05T16:22:44.440Z,101100.36
2023-02-05T16:25:24.655Z,101098.30
2023-02-05T16:27:55.758Z,101101.75
2023-02-05T16:30:40.673Z,101097.77
2023-02-05T16:33:39.456Z,101099.15
2023-02-05T16:36:22.330Z,101101.41
2023-02-05T16:38:54.131Z,101101.23
2023-02-05T16:41:43.940Z,101105.36
2023-02-05T16:44:40.197Z,101107.25
2023-02-05T16:47:22.872Z,101105.31
2023-02-05T16:50:22.512Z,101106.00
2023-02-05T16:53:00.058Z,101110.36
2023-02-05T16:55:31.095Z,101108.95
2023-02-05T16:58:08.587Z,101112.59
2023-02-05T17:00:37.685Z,101111.88
2023-02-05T17:03:19.013Z,101112.04
2023-02-05T17:05:56.169Z,101112.95
2023-02-05T17:08:39.308Z,101116.24
2023-02-05T17:11:41.889Z,101115.90
2023-02-05T17:14:31.306Z,101120.21
2023-02-05T17:17:04.829Z,101121.59
2023-02-05T17:19:34.560Z,101124.55
2023-02-05T17:22:19.710Z,101126.95
2023-02-05T17:24:52.088Z,101127.11
2023-02-05T17:27:37.279Z,101127.97
2023-02-05T17:30:15.991Z,101123.63
2023-02-05T17:32:47.079Z,101120.51
2023-02-05T17:35:28.108Z,101118.77
2023-02-05T17:37:56.600Z,101114.09
2023-02-05T17:40:25.100Z,101117.58
2023-02-05T17:42:56.161Z,101120.73
2023-02-05T17:45:33.135Z,101120.38
2023-02-05T17:48:04.296Z,101123.51
2023-02-05T17:50:44.030Z,101124.37
2023-02-05T17:53:14.348Z,101129.95
2023-02-05T17:55:43.141Z,101136.22
2023-02-05T17:58:11.700Z,101139.70
2023-02-05T18:00:43.776Z,101146.16
2023-02-05T18:03:18.104Z,101144.64
2023-02-05T18:05:46.636Z,101142.70
2023-02-05T18:08:15.372Z,101142.18
2023-02-05T18:10:43.843Z,101144.77
2023-02-05T18:13:13.727Z,101149.13
2023-02-05T18:15:42.508Z,101144.47
2023-02-05T18:18:11.026Z,101145.02
2023-02-05T18:20:40.204Z,101150.23
2023-02-05T18:23:09.815Z,101149.38
2023-02-05T18:25:39.577Z,101147.27
2023-02-05T18:28:08.043Z,101152.15
2023-02-05T18:30:36.666Z,101152.33
2023-02-05T18:33:07.300Z,101156.00
2023-02-05T18:35:37.928Z,101154.45
2023-02-05T18:38:06.408Z,101160.54
2023-02-05T18:40:34.953Z,101163.67
2023-02-05T18:43:04.912Z,101168.02
2023-02-05T18:45:33.373Z,101164.88
2023-02-05T18:48:03.880Z,101160.53
2023-02-05T18:50:33.037Z,101164.89
2023-02-05T18:53:01.779Z,101171.51
2023-02-05T18:55:35.109Z,101169.77
2023-02-05T18:58:04.928Z,101171.14
2023-02-05T19:00:33.788Z,101169.42
2023-02-05T19:03:02.374Z,101173.92
2023-02-05T19:05:30.838Z,101175.30
2023-02-05T19:07:59.249Z,101174.27
2023-02-05T19:10:29.887Z,101177.56
2023-02-05T19:12:58.663Z,101183.60
2023-02-05T19:15:28.405Z,101181.20
2023-02-05T19:17:57.013Z,101183.27
2023-02-05T19:20:25.693Z,101187.79
2023-02-05T19:22:54.034Z,101193.02
2023-02-05T19:25:25.247Z,101191.65
2023-02-05T19:27:53.659Z,101194.11
2023-02-05T19:30:22.148Z,101197.41
2023-02-05T19:32:50.635Z,101197.76
2023-02-05T19:35:21.365Z,101195.66
2023-02-05T19:37:49.798Z,101194.80
2023-02-05T19:40:19.094Z,101191.33
2023-02-05T19:42:49.487Z,101191.67
2023-02-05T19:45:17.812Z,101192.92
2023-02-05T19:47:47.516Z,101194.15
2023-02-05T19:50:16.702Z,101197.10
2023-02-05T19:52:46.232Z,101199.02
2023-02-05T19:55:28.294Z,101196.90
2023-02-05T19:58:03.038Z,101191.20
2023-02-05T20:00:42.127Z,101191.73
2023-02-05T20:03:14.020Z,101195.41
2023-02-05T20:05:45.447Z,101188.97
2023-02-05T20:08:15.787Z,101188.12
2023-02-05T20:10:47.804Z,101191.77
2023-02-05T20:13:17.662Z,101189.34
2023-02-05T20:15:49.820Z,101188.49
2023-02-05T20:18:21.181Z,101189.55
2023-02-05T20:23:38.556Z,101186.25
2023-02-05T20:26:10.574Z,101187.67
2023-02-05T20:29:00.173Z,101191.67
2023-02-05T20:31:34.809Z,101192.04
2023-02-05T20:34:28.074Z,101192.38
2023-02-05T20:37:04.755Z,101196.54
2023-02-05T20:39:35.407Z,101203.45
2023-02-05T20:42:08.528Z,101204.64
2023-02-05T20:44:38.019Z,101204.97
2023-02-05T20:47:08.319Z,101206.02
2023-02-05T20:49:39.991Z,101206.71
2023-02-05T20:52:09.952Z,101214.55
2023-02-05T20:54:38.681Z,101221.50
2023-02-05T20:57:09.500Z,101226.54
2023-02-05T20:59:38.650Z,101228.79
2023-02-05T21:02:10.597Z,101232.07
2023-02-05T21:04:39.189Z,101237.80
2023-02-05T21:07:07.520Z,101237.65
2023-02-05T21:09:38.380Z,101245.84
2023-02-05T21:12:07.181Z,101247.73
2023-02-05T21:14:35.753Z,101249.44
2023-02-05T21:17:04.964Z,101257.77
2023-02-05T21:19:33.388Z,101258.80
2023-02-05T21:22:01.760Z,101254.10
2023-02-05T21:24:30.067Z,101255.13
2023-02-05T21:27:00.299Z,101256.34
2023-02-05T21:29:28.663Z,101258.46
2023-02-05T21:31:57.024Z,101266.10
2023-02-05T21:34:27.771Z,101267.11
2023-02-05T21:36:56.689Z,101267.80
2023-02-05T21:39:25.753Z,101269.91
2023-02-05T21:41:54.853Z,101267.16
2023-02-05T21:44:23.968Z,101264.20
2023-02-05T21:46:53.954Z,101265.29
2023-02-05T21:49:22.367Z,101267.55
2023-02-05T21:51:53.199Z,101270.87
2023-02-05T21:54:25.323Z,101272.81
2023-02-05T21:56:54.379Z,101275.77
2023-02-05T21:59:23.632Z,101279.79
2023-02-05T22:01:52.069Z,101280.48
2023-02-05T22:04:20.820Z,101277.33
2023-02-05T22:06:50.630Z,101279.58
2023-02-05T22:09:19.037Z,101279.92
2023-02-05T22:11:49.513Z,101279.92
2023-02-05T22:14:17.986Z,101277.85
2023-02-05T22:16:46.388Z,101281.15
2023-02-05T22:19:14.895Z,101289.50
2023-02-05T22:21:43.532Z,101291.26
2023-02-05T22:24:15.610Z,101290.56
2023-02-05T22:26:46.630Z,101296.80
2023-02-05T22:29:19.538Z,101297.83
2023-02-05T22:31:53.125Z,101292.98
2023-02-05T22:34:21.825Z,101296.40
2023-02-05T22:36:50.221Z,101298.98
2023-02-05T22:39:18.796Z,101304.68
2023-02-05T22:41:47.118Z,101305.37
2023-02-05T22:44:15.548Z,101306.77
2023-02-05T22:46:44.560Z,101307.96
2023-02-05T22:49:17.633Z,101315.44
2023-02-05T22:51:46.070Z,101319.11
2023-02-05T22:54:15.346Z,101316.35
2023-02-05T22:56:44.105Z,101318.27
2023-02-05T22:59:13.226Z,101320.75
2023-02-05T23:01:42.161Z,101316.94
2023-02-05T23:04:11.167Z,101317.27
2023-02-05T23:06:42.506Z,101320.59
2023-02-05T23:09:17.113Z,101322.70
2023-02-05T23:11:46.500Z,101318.03
2023-02-05T23:14:17.153Z,101313.16
2023-02-05T23:16:47.441Z,101315.07
2023-02-05T23:19:19.738Z,101317.69
2023-02-05T23:21:48.570Z,101315.46
2023-02-05T23:24:17.808Z,101313.74
2023-02-05T23:26:48.754Z,101310.10
2023-02-05T23:29:17.829Z,101311.70
2023-02-05T23:31:46.284Z,101310.14
2023-02-05T23:34:14.717Z,101310.60
2023-02-05T23:36:43.203Z,101314.06
2023-02-05T23:39:11.522Z,101316.48
2023-02-05T23:41:40.294Z,101313.16
2023-02-05T23:44:20.843Z,101314.90
2023-02-05T23:46:50.430Z,101312.59
2023-02-05T23:49:23.507Z,101316.02
2023-02-05T23:51:54.094Z,101319.28
2023-02-05T23:54:23.944Z,101323.77
2023-02-05T23:56:52.658Z,101326.16
2023-02-05T23:59:21.089Z,101325.98
